createdAt,value
2023-05-01T00:01:00.437Z,33.80
2023-05-01T00:03:29.187Z,33.98
2023-05-01T00:06:01.655Z,33.42
2023-05-01T00:08:30.137Z,33.89
2023-05-01T00:10:58.467Z,33.93
2023-05-01T00:13:27.111Z,33.83
2023-05-01T00:15:57.085Z,34.03
2023-05-01T00:18:25.386Z,34.39
2023-05-01T00:20:53.704Z,34.03
2023-05-01T00:23:21.896Z,35.17
2023-05-01T00:25:50.825Z,34.26
2023-05-01T00:28:19.539Z,34.59
2023-05-01T00:30:48.324Z,34.17
2023-05-01T00:33:23.717Z,34.73
2023-05-01T00:35:53.190Z,35.39
2023-05-01T00:38:24.748Z,34.88
2023-05-01T00:40:53.103Z,35.07
2023-05-01T00:43:21.564Z,35.64
2023-05-01T00:45:50.273Z,35.80
2023-05-01T00:48:22.886Z,35.61
2023-05-01T00:50:52.231Z,35.50
2023-05-01T00:53:21.357Z,35.63
2023-05-01T00:55:50.037Z,35.39
2023-05-01T00:58:19.732Z,35.65
2023-05-01T01:00:48.304Z,35.32
2023-05-01T01:03:16.798Z,35.84
2023-05-01T01:05:52.521Z,35.33
2023-05-01T01:08:26.977Z,36.50
2023-05-01T01:11:03.147Z,36.04
2023-05-01T01:13:38.483Z,36.76
2023-05-01T01:16:13.950Z,36.09
2023-05-01T01:19:33.650Z,36.62
2023-05-01T01:22:10.369Z,36.87
2023-05-01T01:24:59.169Z,37.68
2023-05-01T01:27:48.702Z,36.95
2023-05-01T01:30:35.905Z,37.05
2023-05-01T01:33:37.878Z,37.67
2023-05-01T01:36:11.940Z,37.55
2023-05-01T01:38:47.171Z,37.46
2023-05-01T01:41:22.288Z,37.09
2023-05-01T01:43:59.588Z,37.44
2023-05-01T01:46:29.475Z,38.01
2023-05-01T01:49:00.839Z,37.65
2023-05-01T01:51:30.794Z,37.74
2023-05-01T01:54:01.703Z,37.67
2023-05-01T01:56:33.051Z,37.21
2023-05-01T01:59:03.803Z,37.63
2023-05-01T02:01:35.292Z,38.38
2023-05-01T02:04:06.619Z,37.65
2023-05-01T02:06:39.208Z,37.08
2023-05-01T02:09:08.485Z,36.46
2023-05-01T02:11:38.467Z,37.21
2023-05-01T02:14:08.978Z,37.64
2023-05-01T02:16:38.724Z,38.35
2023-05-01T02:19:08.817Z,37.91
2023-05-01T02:21:40.102Z,37.89
2023-05-01T02:24:10.527Z,36.99
2023-05-01T02:26:44.131Z,36.92
2023-05-01T02:29:12.377Z,37.40
2023-05-01T02:31:41.508Z,37.83
2023-05-01T02:34:12.356Z,38.04
2023-05-01T02:36:40.887Z,37.96
2023-05-01T02:39:09.409Z,38.40
2023-05-01T02:41:40.353Z,37.85
2023-05-01T02:44:13.155Z,38.47
2023-05-01T02:46:45.701Z,38.05
2023-05-01T02:49:18.096Z,37.08
2023-05-01T02:51:47.644Z,37.41
2023-05-01T02:54:17.200Z,37.47
2023-05-01T02:56:45.944Z,37.00
2023-05-01T02:59:14.735Z,37.98
2023-05-01T03:01:42.944Z,38.96
2023-05-01T03:04:11.472Z,38.89
2023-05-01T03:06:42.444Z,38.51
2023-05-01T03:09:10.511Z,38.02
2023-05-01T03:11:39.506Z,38.64
2023-05-01T03:14:07.901Z,39.24
2023-05-01T03:16:36.314Z,40.08
2023-05-01T03:19:05.560Z,39.41
2023-05-01T03:21:34.336Z,37.97
2023-05-01T03:24:04.835Z,37.54
2023-05-01T03:26:33.112Z,39.47
2023-05-01T03:29:01.568Z,39.18
2023-05-01T03:31:29.637Z,38.75
2023-05-01T03:33:59.815Z,39.17
2023-05-01T03:36:28.692Z,39.12
2023-05-01T03:38:57.562Z,38.95
2023-05-01T03:41:50.117Z,37.99
2023-05-01T03:44:37.380Z,38.86
2023-05-01T03:47:06.044Z,38.08
2023-05-01T03:49:38.737Z,38.37
2023-05-01T03:52:07.627Z,38.72
2023-05-01T03:54:36.023Z,38.73
2023-05-01T03:57:23.424Z,39.21
2023-05-01T03:59:52.019Z,39.19
2023-05-01T04:02:21.407Z,39.52
2023-05-01T04:04:49.757Z,39.49
2023-05-01T04:07:18.198Z,38.95
2023-05-01T04:09:50.030Z,38.99
2023-05-01T04:12:18.066Z,39.46
2023-05-01T04:14:48.275Z,39.37
2023-05-01T04:17:16.644Z,39.39
2023-05-01T04:19:44.980Z,39.99
2023-05-01T04:22:14.297Z,39.42
2023-05-01T04:24:43.917Z,39.71
2023-05-01T04:27:12.793Z,39.17
2023-05-01T04:29:41.968Z,38.80
2023-05-01T04:32:12.008Z,39.28
2023-05-01T04:34:40.370Z,38.12
2023-05-01T04:37:10.080Z,38.25
2023-05-01T04:39:39.173Z,38.53
2023-05-01T04:42:08.273Z,37.68
2023-05-01T04:44:37.484Z,37.31
2023-05-01T04:47:06.203Z,37.78
2023-05-01T04:49:36.276Z,37.17
2023-05-01T04:52:05.797Z,36.75
2023-05-01T04:54:46.861Z,37.89
2023-05-01T04:57:15.247Z,37.71
2023-05-01T04:59:43.857Z,38.45
2023-05-01T05:02:12.940Z,37.33
2023-05-01T05:04:42.629Z,37.55
2023-05-01T05:07:10.897Z,37.50
2023-05-01T05:10:02.322Z,36.96
2023-05-01T05:12:31.317Z,36.99
2023-05-01T05:14:59.904Z,36.38
2023-05-01T05:17:28.092Z,36.83
2023-05-01T05:19:58.767Z,37.11
2023-05-01T05:22:27.221Z,35.78
2023-05-01T05:25:18.753Z,35.67
2023-05-01T05:27:46.888Z,34.94
2023-05-01T05:30:15.344Z,35.50
2023-05-01T05:32:44.560Z,36.00
2023-05-01T05:35:14.380Z,36.44
2023-05-01T05:37:45.265Z,37.14
2023-05-01T05:40:15.057Z,35.41
2023-05-01T05:43:01.037Z,35.26
2023-05-01T05:45:31.338Z,35.69
2023-05-01T05:47:59.877Z,35.76
2023-05-01T05:50:31.386Z,35.71
2023-05-01T05:53:01.376Z,35.48
2023-05-01T05:55:29.737Z,36.25
2023-05-01T05:58:03.792Z,36.47
2023-05-01T06:00:33.195Z,35.73
2023-05-01T06:03:05.917Z,35.93
2023-05-01T06:05:37.971Z,35.73
2023-05-01T06:08:08.360Z,34.36
2023-05-01T06:10:37.254Z,35.32
2023-05-01T06:13:14.288Z,35.35
2023-05-01T06:15:48.650Z,34.38
2023-05-01T06:18:21.522Z,33.63
2023-05-01T06:20:52.414Z,33.14
2023-05-01T06:23:21.436Z,32.06
2023-05-01T06:26:18.915Z,32.16
2023-05-01T06:28:47.400Z,33.63
2023-05-01T06:31:16.514Z,32.80
2023-05-01T06:33:50.970Z,32.91
2023-05-01T06:36:47.024Z,32.62
2023-05-01T06:39:20.280Z,31.69
2023-05-01T06:41:49.191Z,32.74
2023-05-01T06:44:26.569Z,31.92
2023-05-01T06:46:54.947Z,31.48
2023-05-01T06:49:24.346Z,31.70
2023-05-01T06:51:57.564Z,30.23
2023-05-01T06:54:26.734Z,29.54
2023-05-01T06:57:00.139Z,29.65
2023-05-01T06:59:28.806Z,28.81
2023-05-01T07:02:00.471Z,29.52
2023-05-01T07:04:34.515Z,29.15
2023-05-01T07:07:05.013Z,29.96
2023-05-01T07:09:33.654Z,30.04
2023-05-01T07:12:03.512Z,29.02
2023-05-01T07:14:31.853Z,29.74
2023-05-01T07:17:00.402Z,28.92
2023-05-01T07:19:32.405Z,29.04
2023-05-01T07:22:04.356Z,28.92
2023-05-01T07:24:36.527Z,28.66
2023-05-01T07:27:05.234Z,30.31
2023-05-01T07:29:38.262Z,28.85
2023-05-01T07:32:08.865Z,31.07
2023-05-01T07:34:46.142Z,29.76
2023-05-01T07:37:17.273Z,29.65
2023-05-01T07:39:49.308Z,29.90
2023-05-01T07:42:20.739Z,29.53
2023-05-01T07:44:52.503Z,28.39
2023-05-01T07:47:21.871Z,28.35
2023-05-01T07:49:50.840Z,29.37
2023-05-01T07:52:19.424Z,29.62
2023-05-01T07:54:52.523Z,29.31
2023-05-01T07:57:21.259Z,28.91
2023-05-01T07:59:49.318Z,29.49
2023-05-01T08:02:18.570Z,28.24
2023-05-01T08:04:48.354Z,27.66
2023-05-01T08:07:16.612Z,26.12
2023-05-01T08:09:44.720Z,26.99
2023-05-01T08:12:17.557Z,26.19
2023-05-01T08:14:46.322Z,28.72
2023-05-01T08:17:15.554Z,28.64
2023-05-01T08:19:45.376Z,29.57
2023-05-01T08:22:14.183Z,27.97
2023-05-01T08:24:43.187Z,29.17
2023-05-01T08:27:11.378Z,28.87
2023-05-01T08:29:41.370Z,27.19
2023-05-01T08:32:09.857Z,27.07
2023-05-01T08:34:38.232Z,26.52
2023-05-01T08:37:06.953Z,28.65
2023-05-01T08:39:34.911Z,27.32
2023-05-01T08:42:03.985Z,28.52
2023-05-01T08:44:32.500Z,28.19
2023-05-01T08:47:12.718Z,26.80
2023-05-01T08:49:43.159Z,28.76
2023-05-01T08:52:13.791Z,27.68
2023-05-01T08:54:44.847Z,28.68
2023-05-01T08:57:14.056Z,28.37
2023-05-01T08:59:44.336Z,28.46
2023-05-01T09:02:16.661Z,27.48
2023-05-01T09:04:45.870Z,26.02
2023-05-01T09:07:14.601Z,25.61
2023-05-01T09:09:48.714Z,28.03
2023-05-01T09:12:24.339Z,27.60
2023-05-01T09:14:53.981Z,28.91
2023-05-01T09:17:24.960Z,27.35
2023-05-01T09:19:53.647Z,28.38
2023-05-01T09:22:22.462Z,27.57
2023-05-01T09:24:55.067Z,26.95
2023-05-01T09:27:26.156Z,25.30
2023-05-01T09:29:54.915Z,26.79
2023-05-01T09:32:28.350Z,27.02
2023-05-01T09:35:10.293Z,26.98
2023-05-01T09:37:38.674Z,25.77
2023-05-01T09:40:09.308Z,25.03
2023-05-01T09:42:39.530Z,24.91
2023-05-01T09:45:14.199Z,25.16
2023-05-01T09:47:49.747Z,25.46
2023-05-01T09:50:30.864Z,26.36
2023-05-01T09:53:03.864Z,26.47
2023-05-01T09:55:34.685Z,27.37
2023-05-01T09:58:04.416Z,27.40
2023-05-01T10:00:33.798Z,26.69
2023-05-01T10:03:14.844Z,25.55
2023-05-01T10:05:47.032Z,25.83
2023-05-01T10:08:15.932Z,25.78
2023-05-01T10:10:43.965Z,26.44
2023-05-01T10:13:16.251Z,25.04
2023-05-01T10:15:44.734Z,24.90
2023-05-01T10:18:15.858Z,25.13
2023-05-01T10:20:44.193Z,24.20
2023-05-01T10:23:12.778Z,25.16
2023-05-01T10:25:44.185Z,25.50
2023-05-01T10:28:13.908Z,25.08
2023-05-01T10:30:43.287Z,24.92
2023-05-01T10:33:15.857Z,23.36
2023-05-01T10:35:49.375Z,23.37
2023-05-01T10:38:23.973Z,23.40
2023-05-01T10:40:52.600Z,23.29
2023-05-01T10:43:26.286Z,22.36
2023-05-01T10:45:55.102Z,21.42
2023-05-01T10:48:59.389Z,22.38
2023-05-01T10:51:28.768Z,23.34
2023-05-01T10:54:27.020Z,22.61
2023-05-01T10:57:00.167Z,23.38
2023-05-01T10:59:28.442Z,23.04
2023-05-01T11:01:59.501Z,23.51
2023-05-01T11:04:59.450Z,23.62
2023-05-01T11:07:28.305Z,23.16
2023-05-01T11:09:59.100Z,23.27
2023-05-01T11:12:51.074Z,23.57
2023-05-01T11:15:33.949Z,22.83
2023-05-01T11:18:04.046Z,23.06
2023-05-01T11:20:50.983Z,22.78
2023-05-01T11:23:23.872Z,22.80
2023-05-01T11:26:02.192Z,22.22
2023-05-01T11:28:33.136Z,22.50
2023-05-01T11:31:01.844Z,22.69
2023-05-01T11:33:30.599Z,23.69
2023-05-01T11:36:05.005Z,23.67
2023-05-01T11:38:33.306Z,23.09
2023-05-01T11:41:05.297Z,22.23
2023-05-01T11:43:33.328Z,21.65
2023-05-01T11:46:04.181Z,22.78
2023-05-01T11:48:32.767Z,21.87
2023-05-01T11:51:02.127Z,21.39
2023-05-01T11:53:31.007Z,21.65
2023-05-01T11:55:59.450Z,22.86
2023-05-01T11:58:36.220Z,22.21
2023-05-01T12:01:04.371Z,21.67
2023-05-01T12:03:42.496Z,22.19
2023-05-01T12:06:13.781Z,21.59
2023-05-01T12:08:46.999Z,21.38
2023-05-01T12:11:15.203Z,21.88
2023-05-01T12:13:43.910Z,21.56
2023-05-01T12:16:11.951Z,21.43
2023-05-01T12:18:39.979Z,21.46
2023-05-01T12:21:19.055Z,21.70
2023-05-01T12:23:47.248Z,21.22
2023-05-01T12:26:19.195Z,22.03
2023-05-01T12:29:01.906Z,20.95
2023-05-01T12:31:30.945Z,21.45
2023-05-01T12:34:00.872Z,22.96
2023-05-01T12:36:31.799Z,22.69
2023-05-01T12:39:01.686Z,21.92
2023-05-01T12:41:40.962Z,21.92
2023-05-01T12:44:22.512Z,21.30
2023-05-01T12:46:59.872Z,22.16
2023-05-01T12:49:29.234Z,20.89
2023-05-01T12:52:00.316Z,20.71
2023-05-01T12:54:30.387Z,20.15
2023-05-01T12:57:07.163Z,21.01
2023-05-01T12:59:37.248Z,21.63
2023-05-01T13:02:07.078Z,21.29
2023-05-01T13:04:36.574Z,22.09
2023-05-01T13:07:12.478Z,21.18
2023-05-01T13:09:40.361Z,21.87
2023-05-01T13:12:09.743Z,21.40
2023-05-01T13:14:39.136Z,20.97
2023-05-01T13:17:09.344Z,20.85
2023-05-01T13:19:37.975Z,21.00
2023-05-01T13:22:07.789Z,22.06
2023-05-01T13:24:40.138Z,23.69
2023-05-01T13:27:09.823Z,22.86
2023-05-01T13:29:39.059Z,21.24
2023-05-01T13:32:11.176Z,22.42
2023-05-01T13:34:43.554Z,21.78
2023-05-01T13:37:13.673Z,21.13
2023-05-01T13:39:42.941Z,21.21
2023-05-01T13:42:12.847Z,21.25
2023-05-01T13:44:45.122Z,21.57
2023-05-01T13:47:17.332Z,21.76
2023-05-01T13:49:46.683Z,21.04
2023-05-01T13:52:19.065Z,20.78
2023-05-01T13:54:48.362Z,19.60
2023-05-01T13:57:17.313Z,18.65
2023-05-01T13:59:46.974Z,19.19
2023-05-01T14:02:27.123Z,18.88
2023-05-01T14:04:56.114Z,21.91
2023-05-01T14:07:26.709Z,21.48
2023-05-01T14:09:56.027Z,20.22
2023-05-01T14:12:27.610Z,22.45
2023-05-01T14:14:56.169Z,23.28
2023-05-01T14:17:27.837Z,22.48
2023-05-01T14:19:56.141Z,23.57
2023-05-01T14:22:24.271Z,23.14
2023-05-01T14:24:53.868Z,21.65
2023-05-01T14:27:22.745Z,21.36
2023-05-01T14:29:50.827Z,20.77
2023-05-01T14:32:18.802Z,20.88
2023-05-01T14:34:47.228Z,20.83
2023-05-01T14:37:16.211Z,21.42
2023-05-01T14:39:44.351Z,20.76
2023-05-01T14:42:14.183Z,23.00
2023-05-01T14:44:43.394Z,20.50
2023-05-01T14:47:11.848Z,20.31
2023-05-01T14:49:42.512Z,21.59
2023-05-01T14:52:12.221Z,20.82
2023-05-01T14:54:46.606Z,20.73
2023-05-01T14:57:15.916Z,20.13
2023-05-01T14:59:43.906Z,19.03
2023-05-01T15:02:12.017Z,17.52
2023-05-01T15:04:39.983Z,16.57
2023-05-01T15:07:07.974Z,16.45
2023-05-01T15:09:36.187Z,15.22
2023-05-01T15:12:06.754Z,14.94
2023-05-01T15:14:36.698Z,14.73
2023-05-01T15:17:04.586Z,14.22
2023-05-01T15:19:34.073Z,14.71
2023-05-01T15:22:04.033Z,13.42
2023-05-01T15:24:32.690Z,13.60
2023-05-01T15:27:01.378Z,13.32
2023-05-01T15:29:29.568Z,13.41
2023-05-01T15:32:11.334Z,12.77
2023-05-01T15:34:41.306Z,13.17
2023-05-01T15:37:09.760Z,13.08
2023-05-01T15:39:38.126Z,13.81
2023-05-01T15:42:06.189Z,12.85
2023-05-01T15:44:34.625Z,13.42
2023-05-01T15:47:04.573Z,12.56
2023-05-01T15:49:33.145Z,14.38
2023-05-01T15:52:04.470Z,14.67
2023-05-01T15:54:35.352Z,14.39
2023-05-01T15:57:03.532Z,14.41
2023-05-01T15:59:32.212Z,14.24
2023-05-01T16:02:00.167Z,15.65
2023-05-01T16:04:29.717Z,16.99
2023-05-01T16:06:58.279Z,16.97
2023-05-01T16:09:32.615Z,17.11
2023-05-01T16:12:03.785Z,17.05
2023-05-01T16:14:32.619Z,16.50
2023-05-01T16:17:01.582Z,16.59
2023-05-01T16:19:32.168Z,16.43
2023-05-01T16:22:06.933Z,15.90
2023-05-01T16:24:36.234Z,14.75
2023-05-01T16:27:05.213Z,15.27
2023-05-01T16:29:34.806Z,14.94
2023-05-01T16:32:06.862Z,14.24
2023-05-01T16:34:40.493Z,13.93
2023-05-01T16:37:11.320Z,13.32
2023-05-01T16:39:43.382Z,13.12
2023-05-01T16:42:14.372Z,14.75
2023-05-01T16:44:42.781Z,16.08
2023-05-01T16:47:14.293Z,15.23
2023-05-01T16:49:44.578Z,14.42
2023-05-01T16:52:15.702Z,14.32
2023-05-01T16:54:44.512Z,15.43
2023-05-01T16:57:13.457Z,17.47
2023-05-01T16:59:41.627Z,17.43
2023-05-01T17:02:09.819Z,18.01
2023-05-01T17:04:37.824Z,19.06
2023-05-01T17:07:07.258Z,19.73
2023-05-01T17:09:35.323Z,20.30
2023-05-01T17:12:03.656Z,19.30
2023-05-01T17:14:31.806Z,20.31
2023-05-01T17:16:59.719Z,20.87
2023-05-01T17:19:28.021Z,20.79
2023-05-01T17:21:57.815Z,21.09
2023-05-01T17:24:27.556Z,22.26
2023-05-01T17:26:55.527Z,22.19
2023-05-01T17:29:23.967Z,21.46
2023-05-01T17:31:52.337Z,22.14
2023-05-01T17:34:20.600Z,22.86
2023-05-01T17:36:48.802Z,22.84
2023-05-01T17:39:16.883Z,22.96
2023-05-01T17:41:46.555Z,22.90
2023-05-01T17:44:14.875Z,23.30
2023-05-01T17:46:42.857Z,24.12
2023-05-01T17:49:10.912Z,24.92
2023-05-01T17:51:39.157Z,24.14
2023-05-01T17:54:10.701Z,24.18
2023-05-01T17:56:38.980Z,26.04
2023-05-01T17:59:08.905Z,24.36
2023-05-01T18:01:37.106Z,24.58
2023-05-01T18:04:05.373Z,24.78
2023-05-01T18:06:37.012Z,25.18
2023-05-01T18:09:05.376Z,25.47
2023-05-01T18:11:33.481Z,25.00
2023-05-01T18:14:01.797Z,24.51
2023-05-01T18:16:31.173Z,25.32
2023-05-01T18:18:59.356Z,25.26
2023-05-01T18:21:27.858Z,25.60
2023-05-01T18:23:56.113Z,25.10
2023-05-01T18:26:26.548Z,25.23
2023-05-01T18:28:55.465Z,26.36
2023-05-01T18:31:23.923Z,26.66
2023-05-01T18:33:53.482Z,26.42
2023-05-01T18:36:22.541Z,26.56
2023-05-01T18:38:51.058Z,26.95
2023-05-01T18:41:19.521Z,26.80
2023-05-01T18:43:47.611Z,26.72
2023-05-01T18:46:16.083Z,26.70
2023-05-01T18:48:44.118Z,27.74
2023-05-01T18:51:14.231Z,27.38
2023-05-01T18:53:42.414Z,28.52
2023-05-01T18:56:10.642Z,30.18
2023-05-01T18:58:39.921Z,29.97
2023-05-01T19:01:08.201Z,31.20
2023-05-01T19:03:36.430Z,30.67
2023-05-01T19:06:04.713Z,31.56
2023-05-01T19:08:34.223Z,32.65
2023-05-01T19:11:02.281Z,34.03
2023-05-01T19:13:30.587Z,34.85
2023-05-01T19:15:58.587Z,35.00
2023-05-01T19:18:27.042Z,34.37
2023-05-01T19:20:55.223Z,34.57
2023-05-01T19:23:23.533Z,33.72
2023-05-01T19:25:53.073Z,32.25
2023-05-01T19:28:21.538Z,32.26
2023-05-01T19:30:49.839Z,32.16
2023-05-01T19:33:17.977Z,33.29
2023-05-01T19:35:46.607Z,33.62
2023-05-01T19:38:15.054Z,33.64
2023-05-01T19:40:45.236Z,32.73
2023-05-01T19:43:17.901Z,32.49
2023-05-01T19:45:46.689Z,32.27
2023-05-01T19:48:15.493Z,31.24
2023-05-01T19:50:50.812Z,31.27
2023-05-01T19:53:21.089Z,31.99
2023-05-01T19:55:51.505Z,31.46
2023-05-01T19:58:21.935Z,33.29
2023-05-01T20:00:50.159Z,34.33
2023-05-01T20:03:19.010Z,34.18
2023-05-01T20:05:47.551Z,34.15
2023-05-01T20:08:16.015Z,34.59
2023-05-01T20:10:44.243Z,34.40
2023-05-01T20:13:14.123Z,33.31
2023-05-01T20:15:44.111Z,33.58
2023-05-01T20:18:14.186Z,35.25
2023-05-01T20:20:42.766Z,34.00
2023-05-01T20:23:12.141Z,34.89
2023-05-01T20:25:45.661Z,36.07
2023-05-01T20:28:14.750Z,34.95
2023-05-01T20:30:46.637Z,36.81
2023-05-01T20:33:16.932Z,35.76
2023-05-01T20:35:45.072Z,35.27
2023-05-01T20:38:13.688Z,37.13
2023-05-01T20:40:42.827Z,37.38
2023-05-01T20:43:11.363Z,38.63
2023-05-01T20:45:39.448Z,38.84
2023-05-01T20:48:13.024Z,36.13
2023-05-01T20:50:43.681Z,36.57
2023-05-01T20:53:12.762Z,36.38
2023-05-01T20:55:40.776Z,37.41
2023-05-01T20:58:08.828Z,36.25
2023-05-01T21:00:36.902Z,35.67
2023-05-01T21:03:05.193Z,38.26
2023-05-01T21:05:34.781Z,35.96
2023-05-01T21:08:03.446Z,35.53
2023-05-01T21:10:35.926Z,34.50
2023-05-01T21:13:04.019Z,35.38
2023-05-01T21:15:34.934Z,34.98
2023-05-01T21:18:17.902Z,33.81
2023-05-01T21:20:50.246Z,33.99
2023-05-01T21:23:19.354Z,33.53
2023-05-01T21:25:47.189Z,33.68
2023-05-01T21:28:15.654Z,33.69
2023-05-01T21:30:43.533Z,33.70
2023-05-01T21:33:14.385Z,34.23
2023-05-01T21:35:43.805Z,35.44
2023-05-01T21:38:13.551Z,34.71
2023-05-01T21:40:43.306Z,35.59
2023-05-01T21:43:11.386Z,35.62
2023-05-01T21:45:43.666Z,35.95
2023-05-01T21:48:16.090Z,35.65
2023-05-01T21:50:44.113Z,35.65
2023-05-01T21:53:13.449Z,35.78
2023-05-01T21:55:41.502Z,35.02
2023-05-01T21:58:09.554Z,35.78
2023-05-01T22:00:41.536Z,35.45
2023-05-01T22:03:10.529Z,35.97
2023-05-01T22:05:40.967Z,36.88
2023-05-01T22:08:08.939Z,35.71
2023-05-01T22:10:38.438Z,35.79
2023-05-01T22:13:06.542Z,37.00
2023-05-01T22:15:34.503Z,36.63
2023-05-01T22:18:02.663Z,37.30
2023-05-01T22:20:31.109Z,36.37
2023-05-01T22:22:58.969Z,35.96
2023-05-01T22:25:27.037Z,36.81
2023-05-01T22:27:56.453Z,36.47
2023-05-01T22:30:24.243Z,36.34
2023-05-01T22:32:52.249Z,36.25
2023-05-01T22:35:20.255Z,36.42
2023-05-01T22:37:48.324Z,35.91
2023-05-01T22:40:16.355Z,35.49
2023-05-01T22:42:44.144Z,35.27
2023-05-01T22:45:13.440Z,35.09
2023-05-01T22:47:41.479Z,35.39
2023-05-01T22:50:11.301Z,35.23
2023-05-01T22:52:40.253Z,35.94
2023-05-01T22:55:08.895Z,35.01
2023-05-01T22:57:36.782Z,35.41
2023-05-01T23:00:05.794Z,34.26
2023-05-01T23:02:35.820Z,34.32
2023-05-01T23:05:03.973Z,33.72
2023-05-01T23:07:31.946Z,33.91
2023-05-01T23:09:59.869Z,34.34
2023-05-01T23:12:28.404Z,34.67
2023-05-01T23:14:56.575Z,34.82
2023-05-01T23:17:24.519Z,35.20
2023-05-01T23:19:54.713Z,34.24
2023-05-01T23:22:23.140Z,34.81
2023-05-01T23:24:51.067Z,36.95
2023-05-01T23:27:22.513Z,37.87
2023-05-01T23:29:55.132Z,35.88
2023-05-01T23:32:26.794Z,37.40
2023-05-01T23:34:56.926Z,36.45
2023-05-01T23:37:24.990Z,36.58
2023-05-01T23:39:53.567Z,37.53
2023-05-01T23:42:22.463Z,39.45
2023-05-01T23:44:50.431Z,39.30
2023-05-01T23:47:18.367Z,39.80
2023-05-01T23:49:46.437Z,40.25
2023-05-01T23:52:15.749Z,40.61
2023-05-01T23:54:43.744Z,41.16
2023-05-01T23:57:11.811Z,40.40
2023-05-01T23:59:39.618Z,39.82
